createdAt,value
2022-10-14T00:01:22.951Z,15.53
2022-10-14T00:03:51.993Z,15.48
2022-10-14T00:06:23.065Z,15.49
2022-10-14T00:08:51.670Z,15.50
2022-10-14T00:11:21.567Z,15.50
2022-10-14T00:13:50.225Z,15.51
2022-10-14T00:16:22.338Z,15.51
2022-10-14T00:18:50.543Z,15.49
2022-10-14T00:21:18.984Z,15.48
2022-10-14T00:23:47.835Z,15.46
2022-10-14T00:26:18.492Z,15.48
2022-10-14T00:28:47.251Z,15.48
2022-10-14T00:31:16.107Z,15.43
2022-10-14T00:33:47.808Z,15.39
2022-10-14T00:36:18.859Z,15.38
2022-10-14T00:38:47.214Z,15.32
2022-10-14T00:41:18.860Z,15.22
2022-10-14T00:43:57.653Z,15.16
2022-10-14T00:46:27.092Z,15.19
2022-10-14T00:49:05.120Z,15.29
2022-10-14T00:51:33.350Z,15.30
2022-10-14T00:54:01.531Z,15.27
2022-10-14T00:56:31.534Z,15.34
2022-10-14T00:59:01.047Z,15.36
2022-10-14T01:01:29.392Z,15.25
2022-10-14T01:03:57.320Z,15.20
2022-10-14T01:06:40.795Z,15.31
2022-10-14T01:09:19.878Z,15.36
2022-10-14T01:12:23.369Z,15.42
2022-10-14T01:14:54.836Z,15.40
2022-10-14T01:17:36.243Z,15.32
2022-10-14T01:20:30.161Z,15.31
2022-10-14T01:23:17.931Z,15.34
2022-10-14T01:25:56.408Z,15.38
2022-10-14T01:28:33.044Z,15.42
2022-10-14T01:31:05.869Z,15.43
2022-10-14T01:33:38.162Z,15.37
2022-10-14T01:36:11.608Z,15.39
2022-10-14T01:38:42.697Z,15.33
2022-10-14T01:41:15.824Z,15.30
2022-10-14T01:43:47.833Z,15.24
2022-10-14T01:46:20.893Z,15.29
2022-10-14T01:48:53.857Z,15.28
2022-10-14T01:51:25.563Z,15.29
2022-10-14T01:53:58.658Z,15.36
2022-10-14T01:56:29.075Z,15.37
2022-10-14T01:59:00.544Z,15.36
2022-10-14T02:01:30.034Z,15.37
2022-10-14T02:03:58.117Z,15.19
2022-10-14T02:06:34.931Z,15.11
2022-10-14T02:09:13.237Z,15.10
2022-10-14T02:12:02.268Z,15.09
2022-10-14T02:14:39.674Z,15.08
2022-10-14T02:17:13.595Z,15.16
2022-10-14T02:19:48.488Z,15.24
2022-10-14T02:22:26.431Z,15.23
2022-10-14T02:24:59.306Z,15.25
2022-10-14T02:27:29.728Z,15.32
2022-10-14T02:30:01.005Z,15.28
2022-10-14T02:32:31.943Z,15.21
2022-10-14T02:35:03.102Z,15.10
2022-10-14T02:37:32.420Z,15.04
2022-10-14T02:40:06.311Z,15.06
2022-10-14T02:42:34.444Z,15.17
2022-10-14T02:45:06.078Z,15.23
2022-10-14T02:47:35.432Z,15.24
2022-10-14T02:50:03.691Z,15.22
2022-10-14T02:52:31.735Z,15.26
2022-10-14T02:54:59.640Z,15.29
2022-10-14T02:57:27.633Z,15.31
2022-10-14T02:59:58.187Z,15.31
2022-10-14T03:02:26.391Z,15.32
2022-10-14T03:04:56.087Z,15.36
2022-10-14T03:07:24.389Z,15.35
2022-10-14T03:09:53.927Z,15.34
2022-10-14T03:12:25.101Z,15.33
2022-10-14T03:14:55.048Z,15.34
2022-10-14T03:17:25.183Z,15.38
2022-10-14T03:19:55.494Z,15.38
2022-10-14T03:22:26.743Z,15.36
2022-10-14T03:24:56.104Z,15.36
2022-10-14T03:27:41.320Z,15.34
2022-10-14T03:30:13.476Z,15.34
2022-10-14T03:32:54.893Z,15.36
2022-10-14T03:35:47.193Z,15.37
2022-10-14T03:38:18.976Z,15.38
2022-10-14T03:40:48.725Z,15.38
2022-10-14T03:43:17.848Z,15.38
2022-10-14T03:45:52.689Z,15.34
2022-10-14T03:48:23.265Z,15.35
2022-10-14T03:50:52.571Z,15.35
2022-10-14T03:53:21.361Z,15.36
2022-10-14T03:55:50.989Z,15.33
2022-10-14T03:58:19.082Z,15.33
2022-10-14T04:00:56.917Z,15.17
2022-10-14T04:03:38.357Z,15.03
2022-10-14T04:06:07.927Z,14.99
2022-10-14T04:08:37.403Z,14.86
2022-10-14T04:11:19.164Z,14.97
2022-10-14T04:13:49.210Z,15.08
2022-10-14T04:16:17.306Z,15.14
2022-10-14T04:18:59.857Z,15.16
2022-10-14T04:21:29.285Z,15.16
2022-10-14T04:23:58.933Z,15.07
2022-10-14T04:26:39.752Z,14.98
2022-10-14T04:29:14.082Z,15.01
2022-10-14T04:31:54.509Z,15.08
2022-10-14T04:34:23.672Z,15.15
2022-10-14T04:36:55.025Z,15.16
2022-10-14T04:39:39.963Z,15.14
2022-10-14T04:42:08.059Z,15.16
2022-10-14T04:44:36.550Z,15.13
2022-10-14T04:47:05.848Z,15.11
2022-10-14T04:49:34.020Z,15.14
2022-10-14T04:52:12.899Z,15.15
2022-10-14T04:54:47.555Z,15.17
2022-10-14T04:57:15.556Z,15.13
2022-10-14T04:59:48.281Z,15.09
2022-10-14T05:02:34.699Z,15.11
2022-10-14T05:05:03.543Z,15.12
2022-10-14T05:07:37.430Z,15.13
2022-10-14T05:10:21.338Z,15.14
2022-10-14T05:12:50.112Z,15.17
2022-10-14T05:15:19.672Z,15.16
2022-10-14T05:17:59.240Z,15.17
2022-10-14T05:20:41.464Z,15.18
2022-10-14T05:23:10.856Z,15.16
2022-10-14T05:25:38.880Z,15.13
2022-10-14T05:28:06.979Z,15.13
2022-10-14T05:30:36.106Z,15.16
2022-10-14T05:33:08.219Z,15.17
2022-10-14T05:35:58.139Z,15.18
2022-10-14T05:38:29.009Z,15.16
2022-10-14T05:40:58.838Z,15.16
2022-10-14T05:43:32.066Z,15.20
2022-10-14T05:46:02.299Z,15.20
2022-10-14T05:48:34.521Z,15.16
2022-10-14T05:51:03.518Z,15.19
2022-10-14T05:53:35.629Z,15.24
2022-10-14T05:56:09.879Z,15.28
2022-10-14T05:58:40.193Z,15.31
2022-10-14T06:01:11.600Z,15.31
2022-10-14T06:03:42.405Z,15.31
2022-10-14T06:06:13.350Z,15.32
2022-10-14T06:08:43.088Z,15.28
2022-10-14T06:11:11.003Z,15.25
2022-10-14T06:13:39.741Z,15.28
2022-10-14T06:16:11.124Z,15.26
2022-10-14T06:18:39.532Z,15.25
2022-10-14T06:21:08.504Z,15.24
2022-10-14T06:23:36.719Z,15.25
2022-10-14T06:26:09.829Z,15.21
2022-10-14T06:28:38.473Z,15.22
2022-10-14T06:31:06.874Z,15.25
2022-10-14T06:33:35.260Z,15.30
2022-10-14T06:36:04.042Z,15.30
2022-10-14T06:38:32.010Z,15.31
2022-10-14T06:41:00.192Z,15.30
2022-10-14T06:43:30.131Z,15.22
2022-10-14T06:45:59.550Z,15.20
2022-10-14T06:48:27.628Z,15.28
2022-10-14T06:50:55.611Z,15.37
2022-10-14T06:53:23.568Z,15.41
2022-10-14T06:55:57.803Z,15.48
2022-10-14T06:58:25.760Z,15.52
2022-10-14T07:00:55.255Z,15.55
2022-10-14T07:03:23.555Z,15.56
2022-10-14T07:05:51.861Z,15.56
2022-10-14T07:08:19.856Z,15.59
2022-10-14T07:10:48.212Z,15.60
2022-10-14T07:13:16.279Z,15.60
2022-10-14T07:15:44.244Z,15.63
2022-10-14T07:18:14.103Z,15.59
2022-10-14T07:20:42.019Z,15.61
2022-10-14T07:23:09.942Z,15.67
2022-10-14T07:25:38.002Z,15.69
2022-10-14T07:28:06.377Z,15.72
2022-10-14T07:30:34.440Z,15.74
2022-10-14T07:33:02.774Z,15.76
2022-10-14T07:35:32.347Z,15.81
2022-10-14T07:38:00.980Z,15.89
2022-10-14T07:40:29.549Z,15.96
2022-10-14T07:42:57.758Z,15.98
2022-10-14T07:45:25.735Z,15.92
2022-10-14T07:47:53.834Z,15.98
2022-10-14T07:50:21.790Z,16.03
2022-10-14T07:52:51.291Z,16.08
2022-10-14T07:55:19.284Z,16.12
2022-10-14T07:57:47.200Z,16.04
2022-10-14T08:00:15.565Z,16.01
2022-10-14T08:02:43.575Z,15.96
2022-10-14T08:08:01.442Z,15.89
2022-10-14T08:10:29.575Z,15.91
2022-10-14T08:12:58.054Z,15.89
2022-10-14T08:15:28.537Z,15.91
2022-10-14T08:17:56.565Z,15.90
2022-10-14T08:20:24.507Z,15.73
2022-10-14T08:22:52.436Z,15.63
2022-10-14T08:25:22.457Z,15.58
2022-10-14T08:27:51.250Z,15.45
2022-10-14T08:30:19.522Z,15.47
2022-10-14T08:32:47.612Z,15.39
2022-10-14T08:35:16.081Z,15.35
2022-10-14T08:37:44.124Z,15.23
2022-10-14T08:40:18.218Z,15.24
2022-10-14T08:42:55.364Z,15.12
2022-10-14T08:45:30.393Z,15.06
2022-10-14T08:48:00.473Z,14.99
2022-10-14T08:50:34.469Z,15.05
2022-10-14T08:53:08.423Z,15.08
2022-10-14T08:55:39.884Z,15.21
2022-10-14T08:58:15.804Z,15.37
2022-10-14T09:00:46.901Z,15.39
2022-10-14T09:03:22.120Z,15.38
2022-10-14T09:05:58.743Z,15.28
2022-10-14T09:08:31.864Z,15.34
2022-10-14T09:11:00.281Z,15.28
2022-10-14T09:13:36.103Z,15.38
2022-10-14T09:16:09.324Z,15.56
2022-10-14T09:18:41.848Z,15.65
2022-10-14T09:21:40.424Z,15.69
2022-10-14T09:24:16.676Z,15.59
2022-10-14T09:26:46.371Z,15.56
2022-10-14T09:29:25.030Z,15.58
2022-10-14T09:31:53.308Z,15.62
2022-10-14T09:34:26.732Z,15.57
2022-10-14T09:36:54.857Z,15.48
2022-10-14T09:39:22.905Z,15.59
2022-10-14T09:41:54.275Z,15.71
2022-10-14T09:44:25.913Z,15.82
2022-10-14T09:46:57.330Z,15.87
2022-10-14T09:49:35.913Z,15.87
2022-10-14T09:52:04.167Z,15.95
2022-10-14T09:54:33.503Z,16.12
2022-10-14T09:57:05.118Z,16.22
2022-10-14T09:59:35.401Z,16.31
2022-10-14T10:02:05.548Z,16.34
2022-10-14T10:04:37.449Z,16.35
2022-10-14T10:07:07.704Z,16.36
2022-10-14T10:09:35.875Z,16.30
2022-10-14T10:12:24.489Z,16.36
2022-10-14T10:15:03.693Z,16.45
2022-10-14T10:17:32.753Z,16.45
2022-10-14T10:20:20.524Z,16.51
2022-10-14T10:22:49.050Z,16.62
2022-10-14T10:25:27.250Z,16.73
2022-10-14T10:27:59.481Z,16.83
2022-10-14T10:30:32.359Z,16.87
2022-10-14T10:33:17.067Z,16.86
2022-10-14T10:36:05.471Z,16.82
2022-10-14T10:38:40.410Z,16.83
2022-10-14T10:41:23.634Z,16.89
2022-10-14T10:44:18.487Z,16.89
2022-10-14T10:47:05.822Z,16.88
2022-10-14T10:52:42.504Z,17.08
2022-10-14T10:55:19.135Z,17.15
2022-10-14T10:58:02.621Z,17.22
2022-10-14T11:00:42.643Z,17.29
2022-10-14T11:03:30.877Z,17.25
2022-10-14T11:06:07.484Z,17.23
2022-10-14T11:09:06.010Z,17.31
2022-10-14T11:12:00.025Z,17.42
2022-10-14T11:14:48.559Z,17.54
2022-10-14T11:17:26.883Z,17.57
2022-10-14T11:20:05.464Z,17.50
2022-10-14T11:22:55.963Z,17.43
2022-10-14T11:25:34.688Z,17.43
2022-10-14T11:28:11.266Z,17.40
2022-10-14T11:30:47.752Z,17.39
2022-10-14T11:33:29.471Z,17.38
2022-10-14T11:36:08.164Z,17.35
2022-10-14T11:38:55.452Z,17.30
2022-10-14T11:41:35.487Z,17.35
2022-10-14T11:44:11.224Z,17.34
2022-10-14T11:46:42.990Z,17.33
2022-10-14T11:49:20.150Z,17.20
2022-10-14T11:51:54.090Z,17.15
2022-10-14T11:54:29.523Z,17.24
2022-10-14T11:57:02.561Z,17.21
2022-10-14T11:59:40.087Z,17.20
2022-10-14T12:02:34.764Z,17.19
2022-10-14T12:05:11.649Z,17.19
2022-10-14T12:07:46.199Z,17.16
2022-10-14T12:10:23.407Z,17.19
2022-10-14T12:12:52.890Z,17.18
2022-10-14T12:15:24.951Z,17.20
2022-10-14T12:17:57.040Z,17.22
2022-10-14T12:20:33.538Z,17.21
2022-10-14T12:23:04.381Z,17.18
2022-10-14T12:25:40.067Z,17.18
2022-10-14T12:28:09.772Z,17.26
2022-10-14T12:30:39.656Z,17.37
2022-10-14T12:33:09.578Z,17.39
2022-10-14T12:35:53.328Z,17.44
2022-10-14T12:38:23.151Z,17.54
2022-10-14T12:40:51.120Z,17.62
2022-10-14T12:43:25.667Z,17.64
2022-10-14T12:46:14.449Z,17.72
2022-10-14T12:48:50.352Z,17.69
2022-10-14T12:51:21.016Z,17.70
2022-10-14T12:53:55.624Z,17.70
2022-10-14T12:56:36.322Z,17.72
2022-10-14T12:59:07.568Z,17.70
2022-10-14T13:01:38.893Z,17.72
2022-10-14T13:04:19.916Z,17.70
2022-10-14T13:07:46.590Z,17.68
2022-10-14T13:10:47.324Z,17.67
2022-10-14T13:13:52.519Z,17.72
2022-10-14T13:17:06.469Z,17.70
2022-10-14T13:19:45.437Z,17.59
2022-10-14T13:22:45.943Z,17.59
2022-10-14T13:25:17.708Z,17.59
2022-10-14T13:27:56.585Z,17.50
2022-10-14T13:30:33.982Z,17.54
2022-10-14T13:33:11.979Z,17.50
2022-10-14T13:35:53.545Z,17.56
2022-10-14T13:38:24.841Z,17.54
2022-10-14T13:40:55.356Z,17.52
2022-10-14T13:43:29.165Z,17.50
2022-10-14T13:46:07.980Z,17.52
2022-10-14T13:48:40.231Z,17.51
2022-10-14T13:51:36.671Z,17.53
2022-10-14T13:54:17.852Z,17.57
2022-10-14T13:57:12.617Z,17.61
2022-10-14T14:02:42.875Z,17.58
2022-10-14T14:05:17.008Z,17.50
2022-10-14T14:10:39.177Z,17.41
2022-10-14T14:13:14.389Z,17.37
2022-10-14T14:15:43.850Z,17.36
2022-10-14T14:18:33.942Z,17.35
2022-10-14T14:21:13.989Z,17.32
2022-10-14T14:23:51.063Z,17.34
2022-10-14T14:26:20.160Z,17.38
2022-10-14T14:28:49.455Z,17.43
2022-10-14T14:31:23.052Z,17.46
2022-10-14T14:33:51.148Z,17.45
2022-10-14T14:36:27.846Z,17.45
2022-10-14T14:39:03.354Z,17.50
2022-10-14T14:41:33.236Z,17.46
2022-10-14T14:44:25.689Z,17.45
2022-10-14T14:46:59.311Z,17.40
2022-10-14T14:49:30.587Z,17.29
2022-10-14T14:52:00.599Z,17.31
2022-10-14T14:54:29.899Z,17.34
2022-10-14T14:57:05.013Z,17.37
2022-10-14T14:59:36.764Z,17.36
2022-10-14T15:02:14.500Z,17.32
2022-10-14T15:04:43.819Z,17.22
2022-10-14T15:07:21.067Z,17.21
2022-10-14T15:09:52.693Z,17.19
2022-10-14T15:12:24.198Z,17.18
2022-10-14T15:14:53.869Z,17.15
2022-10-14T15:17:32.174Z,17.10
2022-10-14T15:20:21.781Z,17.08
2022-10-14T15:22:51.798Z,17.00
2022-10-14T15:25:30.669Z,16.94
2022-10-14T15:27:59.871Z,16.89
2022-10-14T15:30:34.697Z,16.89
2022-10-14T15:33:13.863Z,16.88
2022-10-14T15:35:42.291Z,16.83
2022-10-14T15:38:16.147Z,16.78
2022-10-14T15:40:45.203Z,16.76
2022-10-14T15:43:17.615Z,16.76
2022-10-14T15:46:10.660Z,16.78
2022-10-14T15:48:40.498Z,16.77
2022-10-14T15:51:08.470Z,16.74
2022-10-14T15:53:36.567Z,16.73
2022-10-14T15:56:04.502Z,16.70
2022-10-14T15:58:33.775Z,16.74
2022-10-14T16:01:02.305Z,16.73
2022-10-14T16:03:34.571Z,16.73
2022-10-14T16:06:05.635Z,16.74
2022-10-14T16:08:34.117Z,16.75
2022-10-14T16:11:04.338Z,16.76
2022-10-14T16:13:32.281Z,16.77
2022-10-14T16:16:02.892Z,16.75
2022-10-14T16:18:30.795Z,16.73
2022-10-14T16:20:58.826Z,16.72
2022-10-14T16:23:32.511Z,16.73
2022-10-14T16:26:01.985Z,16.66
2022-10-14T16:28:30.003Z,16.60
2022-10-14T16:30:59.971Z,16.57
2022-10-14T16:33:28.031Z,16.51
2022-10-14T16:35:57.596Z,16.51
2022-10-14T16:38:25.641Z,16.46
2022-10-14T16:40:59.060Z,16.48
2022-10-14T16:43:27.658Z,16.42
2022-10-14T16:45:59.100Z,16.41
2022-10-14T16:48:27.984Z,16.44
2022-10-14T16:50:56.585Z,16.43
2022-10-14T16:53:45.186Z,16.41
2022-10-14T16:56:34.349Z,16.38
2022-10-14T16:59:02.933Z,16.38
2022-10-14T17:01:30.998Z,16.36
2022-10-14T17:03:59.446Z,16.37
2022-10-14T17:06:27.983Z,16.38
2022-10-14T17:08:55.903Z,16.28
2022-10-14T17:11:27.378Z,16.27
2022-10-14T17:13:57.492Z,16.29
2022-10-14T17:16:27.100Z,16.27
2022-10-14T17:18:55.128Z,16.27
2022-10-14T17:21:23.076Z,16.22
2022-10-14T17:23:51.284Z,16.24
2022-10-14T17:26:20.762Z,16.27
2022-10-14T17:28:50.654Z,16.26
2022-10-14T17:31:22.630Z,16.24
2022-10-14T17:33:51.048Z,16.22
2022-10-14T17:36:21.084Z,16.21
2022-10-14T17:38:50.751Z,16.24
2022-10-14T17:41:19.582Z,16.22
2022-10-14T17:43:49.549Z,16.23
2022-10-14T17:46:21.333Z,16.22
2022-10-14T17:48:51.782Z,16.22
2022-10-14T17:51:22.919Z,16.25
2022-10-14T17:53:53.943Z,16.25
2022-10-14T17:56:22.260Z,16.20
2022-10-14T17:58:53.293Z,16.23
2022-10-14T18:01:36.811Z,16.26
2022-10-14T18:04:11.098Z,16.26
2022-10-14T18:06:39.134Z,16.27
2022-10-14T18:09:09.648Z,16.29
2022-10-14T18:12:06.949Z,16.26
2022-10-14T18:14:29.216Z,16.21
2022-10-14T18:16:59.415Z,16.24
2022-10-14T18:19:27.845Z,16.26
2022-10-14T18:21:55.822Z,16.24
2022-10-14T18:24:23.850Z,16.27
2022-10-14T18:26:52.165Z,16.26
2022-10-14T18:29:20.168Z,16.23
2022-10-14T18:34:25.496Z,16.17
2022-10-14T18:36:53.456Z,16.16
2022-10-14T18:39:21.587Z,16.12
2022-10-14T18:41:49.558Z,16.09
2022-10-14T18:44:17.885Z,16.06
2022-10-14T18:46:47.701Z,16.02
2022-10-14T18:49:15.628Z,16.05
2022-10-14T18:51:45.065Z,15.99
2022-10-14T18:54:15.906Z,15.90
2022-10-14T18:56:44.773Z,15.89
2022-10-14T18:59:14.677Z,15.89
2022-10-14T19:01:43.074Z,15.87
2022-10-14T19:04:13.460Z,15.87
2022-10-14T19:06:42.726Z,15.90
2022-10-14T19:09:13.797Z,15.89
2022-10-14T19:11:42.739Z,15.91
2022-10-14T19:14:10.952Z,15.95
2022-10-14T19:16:39.946Z,15.98
2022-10-14T19:19:11.688Z,16.04
2022-10-14T19:21:40.072Z,16.04
2022-10-14T19:24:08.855Z,16.03
2022-10-14T19:26:40.530Z,16.03
2022-10-14T19:29:11.754Z,15.99
2022-10-14T19:31:41.007Z,15.94
2022-10-14T19:34:13.926Z,15.95
2022-10-14T19:36:42.584Z,15.94
2022-10-14T19:39:14.535Z,15.92
2022-10-14T19:41:46.440Z,15.92
2022-10-14T19:44:15.538Z,15.85
2022-10-14T19:46:43.752Z,15.85
2022-10-14T19:49:13.725Z,15.88
2022-10-14T19:51:41.852Z,15.83
2022-10-14T19:54:12.010Z,15.83
2022-10-14T19:56:39.986Z,15.83
2022-10-14T19:59:10.467Z,15.81
2022-10-14T20:01:38.540Z,15.79
2022-10-14T20:04:07.093Z,15.83
2022-10-14T20:06:37.814Z,15.84
2022-10-14T20:09:06.117Z,15.82
2022-10-14T20:11:34.329Z,15.79
2022-10-14T20:14:02.335Z,15.77
2022-10-14T20:16:31.757Z,15.75
2022-10-14T20:18:59.710Z,15.69
2022-10-14T20:21:30.063Z,15.66
2022-10-14T20:23:59.371Z,15.66
2022-10-14T20:26:27.559Z,15.59
2022-10-14T20:28:55.979Z,15.57
2022-10-14T20:31:25.554Z,15.59
2022-10-14T20:33:56.251Z,15.57
2022-10-14T20:36:24.711Z,15.58
2022-10-14T20:38:52.966Z,15.62
2022-10-14T20:41:23.039Z,15.63
2022-10-14T20:43:51.417Z,15.58
2022-10-14T20:46:20.154Z,15.62
2022-10-14T20:48:48.050Z,15.61
2022-10-14T20:51:19.642Z,15.63
2022-10-14T20:53:47.547Z,15.67
2022-10-14T20:56:15.957Z,15.65
2022-10-14T20:58:44.056Z,15.65
2022-10-14T21:01:13.777Z,15.66
2022-10-14T21:03:43.232Z,15.63
2022-10-14T21:06:15.159Z,15.58
2022-10-14T21:08:45.073Z,15.54
2022-10-14T21:11:15.531Z,15.56
2022-10-14T21:13:45.947Z,15.59
2022-10-14T21:16:15.388Z,15.60
2022-10-14T21:18:46.536Z,15.53
2022-10-14T21:21:16.759Z,15.55
2022-10-14T21:23:46.571Z,15.48
2022-10-14T21:26:14.837Z,15.46
2022-10-14T21:28:43.180Z,15.47
2022-10-14T21:31:17.399Z,15.50
2022-10-14T21:33:47.549Z,15.53
2022-10-14T21:36:17.277Z,15.53
2022-10-14T21:38:46.624Z,15.53
2022-10-14T21:41:14.631Z,15.56
2022-10-14T21:43:42.937Z,15.49
2022-10-14T21:46:13.185Z,15.52
2022-10-14T21:48:42.000Z,15.58
2022-10-14T21:51:12.279Z,15.59
2022-10-14T21:53:41.704Z,15.59
2022-10-14T21:56:12.884Z,15.56
2022-10-14T21:58:41.453Z,15.55
2022-10-14T22:01:12.851Z,15.51
2022-10-14T22:03:41.639Z,15.27
2022-10-14T22:06:12.003Z,15.14
2022-10-14T22:08:42.180Z,14.99
2022-10-14T22:11:18.451Z,14.97
2022-10-14T22:13:46.881Z,15.10
2022-10-14T22:16:16.946Z,15.25
2022-10-14T22:18:46.875Z,15.33
2022-10-14T22:21:17.203Z,15.40
2022-10-14T22:23:45.887Z,15.49
2022-10-14T22:26:15.739Z,15.56
2022-10-14T22:28:45.427Z,15.54
2022-10-14T22:31:16.245Z,15.57
2022-10-14T22:33:44.302Z,15.60
2022-10-14T22:36:14.391Z,15.53
2022-10-14T22:38:45.372Z,15.29
2022-10-14T22:41:15.312Z,15.26
2022-10-14T22:43:48.461Z,15.40
2022-10-14T22:46:19.633Z,15.46
2022-10-14T22:48:48.408Z,15.54
2022-10-14T22:51:18.476Z,15.57
2022-10-14T22:53:47.537Z,15.65
2022-10-14T22:56:18.099Z,15.65
2022-10-14T22:58:47.409Z,15.62
2022-10-14T23:01:17.537Z,15.63
2022-10-14T23:03:45.524Z,15.66
2022-10-14T23:06:14.703Z,15.64
2022-10-14T23:08:43.228Z,15.60
2022-10-14T23:11:13.811Z,15.64
2022-10-14T23:13:42.084Z,15.60
2022-10-14T23:16:14.315Z,15.66
2022-10-14T23:21:17.454Z,15.64
2022-10-14T23:23:46.694Z,15.64
2022-10-14T23:26:16.143Z,15.62
2022-10-14T23:28:44.239Z,15.60
2022-10-14T23:31:15.317Z,15.64
2022-10-14T23:33:43.421Z,15.60
2022-10-14T23:36:13.407Z,15.54
2022-10-14T23:38:41.675Z,15.60
2022-10-14T23:41:11.138Z,15.65
2022-10-14T23:43:39.359Z,15.65
2022-10-14T23:46:07.943Z,15.59
2022-10-14T23:48:38.003Z,15.56
2022-10-14T23:51:06.199Z,15.63
2022-10-14T23:53:35.004Z,15.66
2022-10-14T23:56:03.143Z,15.70
2022-10-14T23:58:31.075Z,15.72
